Straumvik — LEYJ — position and weather

sailwx.info

Track history (hours):
 
Tides and Currents Weather Stations Pressure Air Temp Water Temp Dewpoint Dewpoint Depression Visibility Wind Speed Wind Dir Waves Ship Positions

Straumvik

Last reported at 2017-Nov-20 00:30 UTC. Time now 2017-Nov-22 11:20 UTC.
Position N 61°13' E 004°58'.

Length 50 m; draft 5 m.

Type: Ship. MMSI: 258260000.

Date/timePositionNaut miles runAvg speedWind from/ knotsBaromVisibWave heightAir tempDewpointWater temp
2017-Nov-20 00:30N 61°13' E 004°58'4 7.9
2017-Nov-20 00:01N 61°09' E 005°01'4 7.8
2017-Nov-19 23:30N 61°05' E 005°00'4 7.6
2017-Nov-19 23:00N 61°02' E 004°55'4 7.7
2017-Nov-19 22:30N 61°00' E 004°49'4 7.2
2017-Nov-19 22:00N 60°57' E 004°45'4 7.5
2017-Nov-19 21:30N 60°53' E 004°46'4 7.0
2017-Nov-19 21:00N 60°50' E 004°45'4 7.1
2017-Nov-19 20:30N 60°46' E 004°47'4 7.5
2017-Nov-19 20:00N 60°43' E 004°50'4 7.4
2017-Nov-19 19:30N 60°40' E 004°54'4 7.7
2017-Nov-19 19:00N 60°37' E 005°00'4 7.9
2017-Nov-19 18:30N 60°36' E 005°08'4 8.1
2017-Nov-19 18:00N 60°34' E 005°14'3 6.6
2017-Nov-19 17:30N 60°33' E 005°21'4 7.0
2017-Nov-19 17:00N 60°36' E 005°26'0 0.5
2017-Nov-19 16:29N 60°36' E 005°26'0 0.0
2017-Nov-19 15:59N 60°36' E 005°26'0 0.0
2017-Nov-19 15:29N 60°36' E 005°26'0 0.0
2017-Nov-19 14:59N 60°36' E 005°26'0 0.0
2017-Nov-19 14:29N 60°36' E 005°26'0 0.0
2017-Nov-19 13:59N 60°36' E 005°26'0 0.0
2017-Nov-19 13:29N 60°36' E 005°26'0 0.0
2017-Nov-19 12:59N 60°36' E 005°26'0 0.0
2017-Nov-19 12:29N 60°36' E 005°26'0 0.0
2017-Nov-19 11:56N 60°36' E 005°26'0 0.0
2017-Nov-19 11:29N 60°36' E 005°26'0 0.0
2017-Nov-19 10:59N 60°36' E 005°26'0 0.0
2017-Nov-19 10:29N 60°36' E 005°26'0 0.0
2017-Nov-19 09:59N 60°36' E 005°26'0 0.0
2017-Nov-19 09:29N 60°36' E 005°26'0 0.0
2017-Nov-19 08:59N 60°36' E 005°26'0 0.0
2017-Nov-19 08:29N 60°36' E 005°26'0 0.0
2017-Nov-19 07:59N 60°36' E 005°26'0 0.0
2017-Nov-19 07:29N 60°36' E 005°26'0 0.0
2017-Nov-19 06:59N 60°36' E 005°26'0 0.0
2017-Nov-19 06:29N 60°36' E 005°26'0 0.0
2017-Nov-19 05:59N 60°36' E 005°26'0 0.0
2017-Nov-19 05:29N 60°36' E 005°26'0 0.0
2017-Nov-19 04:59N 60°36' E 005°26'0 0.0
2017-Nov-19 04:29N 60°36' E 005°26'0 0.0
2017-Nov-19 03:59N 60°36' E 005°26'0 0.0
2017-Nov-19 03:29N 60°36' E 005°26'0 0.0
2017-Nov-19 02:59N 60°36' E 005°26'0 0.0
2017-Nov-19 02:29N 60°36' E 005°26'0 0.0
2017-Nov-19 01:59N 60°36' E 005°26'0 0.0
2017-Nov-19 01:29N 60°36' E 005°26'0 0.0
2017-Nov-19 00:59N 60°36' E 005°26'0 0.0
2017-Nov-19 00:29N 60°36' E 005°26'0 0.0
2017-Nov-18 23:59N 60°36' E 005°26'0 0.0
2017-Nov-18 23:29N 60°36' E 005°26'0 0.0
2017-Nov-18 22:59N 60°36' E 005°26'0 0.0
2017-Nov-18 22:29N 60°36' E 005°26'0 0.0
2017-Nov-18 21:59N 60°36' E 005°26'0 0.0
2017-Nov-18 21:29N 60°36' E 005°26'0 0.0
2017-Nov-18 20:59N 60°36' E 005°26'0 0.0
2017-Nov-18 20:29N 60°36' E 005°26'0 0.0
2017-Nov-18 19:59N 60°36' E 005°26'0 0.0
2017-Nov-18 19:29N 60°36' E 005°26'0 0.0
2017-Nov-18 18:59N 60°36' E 005°26'0 0.0
2017-Nov-18 18:30N 60°36' E 005°26'4 7.3
2017-Nov-18 18:00N 60°33' E 005°21'4 8.7
2017-Nov-18 17:30N 60°30' E 005°15'4 7.5
2017-Nov-18 17:00N 60°26' E 005°15'4 7.8
2017-Nov-18 16:30N 60°23' E 005°11'4 8.1
2017-Nov-18 16:00N 60°19' E 005°12'4 8.7
2017-Nov-18 15:30N 60°15' E 005°10'4 8.1
2017-Nov-18 15:00N 60°11' E 005°14'4 8.0
2017-Nov-18 14:30N 60°08' E 005°19'4 7.8
2017-Nov-18 14:00N 60°07' E 005°26'4 7.3
2017-Nov-18 13:30N 60°06' E 005°33'3 6.1
2017-Nov-18 13:00N 60°04' E 005°38'0 0.0
2017-Nov-18 12:24N 60°04' E 005°38'0 0.0
2017-Nov-18 11:54N 60°04' E 005°38'0 0.0
2017-Nov-18 11:30N 60°04' E 005°38'0 0.0
2017-Nov-18 10:58N 60°04' E 005°38'0 0.0
2017-Nov-18 10:30N 60°04' E 005°38'0 0.0
2017-Nov-18 09:55N 60°04' E 005°38'0 0.0
2017-Nov-18 09:30N 60°04' E 005°38'0 0.0
2017-Nov-18 09:00N 60°04' E 005°38'0 0.0
2017-Nov-18 08:30N 60°04' E 005°38'0 0.0
2017-Nov-18 08:00N 60°04' E 005°38'0 0.0
2017-Nov-18 07:30N 60°04' E 005°38'2 3.3
2017-Nov-18 07:00N 60°05' E 005°36'3 5.1
2017-Nov-18 06:30N 60°06' E 005°31'3 5.8
2017-Nov-18 05:59N 60°07' E 005°26'3 5.9
2017-Nov-18 05:30N 60°08' E 005°20'3 5.9
2017-Nov-18 04:59N 60°10' E 005°16'3 5.3
2017-Nov-18 04:29N 60°12' E 005°13'3 5.3
2017-Nov-18 04:00N 60°14' E 005°09'2 5.0
2017-Nov-18 03:30N 60°17' E 005°10'3 5.2
2017-Nov-18 03:00N 60°19' E 005°12'2 5.1
2017-Nov-18 02:30N 60°21' E 005°10'3 5.2
2017-Nov-18 02:00N 60°24' E 005°13'2 4.6
2017-Nov-18 01:30N 60°26' E 005°15'2 4.8
2017-Nov-18 01:00N 60°28' E 005°15'2 4.4
2017-Nov-18 00:30N 60°30' E 005°12'2 4.8
2017-Nov-18 00:00N 60°31' E 005°08'3 5.4
2017-Nov-17 23:30N 60°32' E 005°03'2 4.2
2017-Nov-17 23:00N 60°33' E 004°59'0 0.1
2017-Nov-17 22:30N 60°33' E 004°59'0 0.0
2017-Nov-17 22:00N 60°33' E 004°59'1 1.6
2017-Nov-17 21:29N 60°33' E 005°01'4 7.9
2017-Nov-17 21:00N 60°31' E 005°08'4 8.2
2017-Nov-17 20:30N 60°29' E 005°14'4 9.1
2017-Nov-17 20:00N 60°24' E 005°17'1 1.5
2017-Nov-17 19:30N 60°24' E 005°17'0 0.0
2017-Nov-17 19:00N 60°24' E 005°17'0 0.0
2017-Nov-17 18:30N 60°24' E 005°17'0 0.0
2017-Nov-17 18:00N 60°24' E 005°17'0 0.0
2017-Nov-17 17:30N 60°24' E 005°17'0 0.0
2017-Nov-17 17:00N 60°24' E 005°17'0 0.0
2017-Nov-17 16:30N 60°24' E 005°17'0 0.0
2017-Nov-17 16:00N 60°24' E 005°17'0 0.0
2017-Nov-17 15:30N 60°24' E 005°17'0 0.0
2017-Nov-17 15:00N 60°24' E 005°17'0 0.0
2017-Nov-17 14:30N 60°24' E 005°17'3 6.6
2017-Nov-17 14:00N 60°27' E 005°15'4 7.9
2017-Nov-17 13:30N 60°30' E 005°11'4 8.6
2017-Nov-17 13:00N 60°32' E 005°04'2 4.8
2017-Nov-17 12:30N 60°33' E 004°59'0 0.0
2017-Nov-17 12:00N 60°33' E 004°59'0 0.0
2017-Nov-17 11:30N 60°33' E 004°59'0 0.4
2017-Nov-17 11:00N 60°33' E 004°60'4 7.2
2017-Nov-17 10:30N 60°32' E 005°06'4 8.2
2017-Nov-17 10:00N 60°30' E 005°13'4 8.6
2017-Nov-17 09:30N 60°25' E 005°16'4 8.2
2017-Nov-17 09:00N 60°22' E 005°10'0 0.3
2017-Nov-17 08:30N 60°22' E 005°10'0 0.0
2017-Nov-17 08:00N 60°22' E 005°10'0 0.0
2017-Nov-17 07:30N 60°22' E 005°10'0 0.0
2017-Nov-17 07:00N 60°22' E 005°10'0 0.0
2017-Nov-17 06:30N 60°22' E 005°10'0 0.0
2017-Nov-17 06:00N 60°22' E 005°10'0 0.0
2017-Nov-17 05:30N 60°22' E 005°10'0 0.0
2017-Nov-17 05:00N 60°22' E 005°10'0 0.0
2017-Nov-17 04:30N 60°22' E 005°10'0 0.0
2017-Nov-17 04:00N 60°22' E 005°10'0 0.0
2017-Nov-17 03:30N 60°22' E 005°10'0 0.0
2017-Nov-17 03:00N 60°22' E 005°10'0 0.0
2017-Nov-17 02:30N 60°22' E 005°10'0 0.0
2017-Nov-17 02:00N 60°22' E 005°10'0 0.0
2017-Nov-17 01:30N 60°22' E 005°10'1 2.2
2017-Nov-17 01:00N 60°23' E 005°11'4 7.5
2017-Nov-17 00:30N 60°26' E 005°15'4 8.5
2017-Nov-17 00:00N 60°30' E 005°11'5 9.1
2017-Nov-16 23:30N 60°32' E 005°03'2 4.2
2017-Nov-16 22:59N 60°33' E 004°59'0 0.0
2017-Nov-16 22:29N 60°33' E 004°59'0 0.0
2017-Nov-16 22:00N 60°33' E 004°59'0 0.2
2017-Nov-16 21:30N 60°33' E 004°59'4 7.0
2017-Nov-16 21:00N 60°32' E 005°06'4 7.6
2017-Nov-16 20:30N 60°30' E 005°13'4 8.2
2017-Nov-16 20:00N 60°26' E 005°15'4 8.6
2017-Nov-16 19:30N 60°23' E 005°10'0 0.9
2017-Nov-16 18:58N 60°22' E 005°10'0 0.0
2017-Nov-16 18:28N 60°22' E 005°10'0 0.0
2017-Nov-16 17:58N 60°22' E 005°10'0 0.0
2017-Nov-16 17:28N 60°22' E 005°10'0 0.0
2017-Nov-16 16:58N 60°22' E 005°10'0 0.0
2017-Nov-16 16:28N 60°22' E 005°10'0 0.0
2017-Nov-16 15:58N 60°22' E 005°10'1 2.0
2017-Nov-16 15:30N 60°23' E 005°11'4 7.1
2017-Nov-16 15:00N 60°26' E 005°15'4 7.8
2017-Nov-16 14:30N 60°29' E 005°13'4 8.1
2017-Nov-16 14:00N 60°32' E 005°06'4 7.5
2017-Nov-16 13:30N 60°33' E 004°59'0 0.0
2017-Nov-16 13:00N 60°33' E 004°59'0 0.0
2017-Nov-16 12:30N 60°33' E 004°59'0 0.0
2017-Nov-16 12:00N 60°33' E 004°59'1 2.0
2017-Nov-16 11:30N 60°33' E 005°01'510.6
2017-Nov-16 11:00N 60°31' E 005°11'510.5
2017-Nov-16 10:30N 60°26' E 005°16'3 4.8
2017-Nov-16 09:58N 60°24' E 005°17'0 0.0
2017-Nov-16 09:28N 60°24' E 005°17'0 0.0
2017-Nov-16 08:58N 60°24' E 005°17'0 0.0
2017-Nov-16 08:28N 60°24' E 005°17'0 0.0
2017-Nov-16 07:58N 60°24' E 005°17'0 0.0
2017-Nov-16 07:28N 60°24' E 005°17'0 0.0
2017-Nov-16 06:58N 60°24' E 005°17'0 0.0
2017-Nov-16 06:28N 60°24' E 005°17'0 0.0
2017-Nov-16 06:00N 60°24' E 005°17'2 3.7
2017-Nov-16 05:29N 60°25' E 005°16'3 6.6
2017-Nov-16 05:00N 60°28' E 005°14'3 6.6
2017-Nov-16 04:30N 60°31' E 005°10'4 7.4
2017-Nov-16 04:00N 60°32' E 005°03'2 3.8
2017-Nov-16 03:29N 60°33' E 004°59'0 0.0
2017-Nov-16 02:59N 60°33' E 004°59'0 0.0
2017-Nov-16 02:29N 60°33' E 004°59'0 0.0
2017-Nov-16 01:59N 60°33' E 004°59'0 0.0
2017-Nov-16 01:30N 60°33' E 004°59'3 6.7
2017-Nov-16 01:00N 60°32' E 005°05'510.0
2017-Nov-16 00:30N 60°29' E 005°14'5 9.5
2017-Nov-16 00:01N 60°24' E 005°15'4 7.7
2017-Nov-15 23:30N 60°21' E 005°10'4 8.2
2017-Nov-15 23:00N 60°17' E 005°12'4 8.5
2017-Nov-15 22:30N 60°13' E 005°11'5 9.7
2017-Nov-15 22:00N 60°09' E 005°16'5 9.5
2017-Nov-15 21:30N 60°05' E 005°19'5 9.7
2017-Nov-15 21:00N 59°60' E 005°21'510.1
2017-Nov-15 20:30N 59°56' E 005°28'4 8.7
2017-Nov-15 20:00N 59°53' E 005°34'4 8.7
2017-Nov-15 19:30N 59°52' E 005°42'1 1.9
2017-Nov-15 18:58N 59°52' E 005°44'0 0.0
2017-Nov-15 18:28N 59°52' E 005°44'0 0.0
2017-Nov-15 17:58N 59°52' E 005°44'0 0.0
2017-Nov-15 17:25N 59°52' E 005°44'0 0.0
2017-Nov-15 16:58N 59°52' E 005°44'0 0.0
2017-Nov-15 16:28N 59°52' E 005°44'0 0.0
2017-Nov-15 15:58N 59°52' E 005°44'0 0.0
2017-Nov-15 15:19N 59°52' E 005°44'0 0.0
2017-Nov-15 14:58N 59°52' E 005°44'0 0.0
2017-Nov-15 14:28N 59°52' E 005°44'0 0.0
2017-Nov-15 13:55N 59°52' E 005°44'0 0.0
2017-Nov-15 13:22N 59°52' E 005°44'0 0.0
2017-Nov-15 12:58N 59°52' E 005°44'0 0.0
2017-Nov-15 12:25N 59°52' E 005°44'0 0.0
2017-Nov-15 11:58N 59°52' E 005°44'0 0.0
2017-Nov-15 11:22N 59°52' E 005°44'0 0.0
2017-Nov-15 10:58N 59°52' E 005°44'0 0.0
2017-Nov-15 10:28N 59°52' E 005°44'0 0.0
2017-Nov-15 09:58N 59°52' E 005°44'0 0.0
2017-Nov-15 09:28N 59°52' E 005°44'0 0.0
2017-Nov-15 08:55N 59°52' E 005°44'0 0.0
2017-Nov-15 08:28N 59°52' E 005°44'0 0.0
2017-Nov-15 07:58N 59°52' E 005°44'0 0.0
2017-Nov-15 07:28N 59°52' E 005°44'0 0.0
2017-Nov-15 06:58N 59°52' E 005°44'0 0.0
2017-Nov-15 06:28N 59°52' E 005°44'0 0.0
2017-Nov-15 05:58N 59°52' E 005°44'0 0.0
2017-Nov-15 05:28N 59°52' E 005°44'0 0.0
2017-Nov-15 04:58N 59°52' E 005°44'0 0.0
2017-Nov-15 04:28N 59°52' E 005°44'0 0.0
2017-Nov-15 03:55N 59°52' E 005°44'0 0.0
2017-Nov-15 03:28N 59°52' E 005°44'0 0.0
2017-Nov-15 02:58N 59°52' E 005°44'0 0.0
2017-Nov-15 02:25N 59°52' E 005°44'0 0.0
2017-Nov-15 01:58N 59°52' E 005°44'0 0.0
2017-Nov-15 01:30N 59°52' E 005°44'2 3.8
2017-Nov-15 01:00N 59°51' E 005°41'4 7.6
2017-Nov-15 00:30N 59°48' E 005°37'4 8.7
2017-Nov-15 00:00N 59°44' E 005°37'4 8.6
2017-Nov-14 23:30N 59°40' E 005°42'4 8.1
2017-Nov-14 23:00N 59°39' E 005°50'3 6.2
2017-Nov-14 22:30N 59°40' E 005°56'0 0.0
2017-Nov-14 22:00N 59°40' E 005°56'0 0.0
2017-Nov-14 21:30N 59°40' E 005°56'0 0.0
2017-Nov-14 21:00N 59°40' E 005°56'0 0.0
2017-Nov-14 20:30N 59°40' E 005°56'0 0.0
2017-Nov-14 20:00N 59°40' E 005°56'0 0.0
2017-Nov-14 19:30N 59°40' E 005°56'0 0.2
2017-Nov-14 19:00N 59°40' E 005°56'4 8.2
2017-Nov-14 18:30N 59°39' E 005°48'4 9.0
2017-Nov-14 18:00N 59°41' E 005°41'5 9.4
2017-Nov-14 17:30N 59°45' E 005°36'5 9.6
2017-Nov-14 17:01N 59°50' E 005°33'4 8.9
2017-Nov-14 16:30N 59°54' E 005°31'4 8.2
2017-Nov-14 16:00N 59°57' E 005°25'4 8.3
2017-Nov-14 15:30N 60°00' E 005°20'5 9.2
2017-Nov-14 15:00N 60°05' E 005°19'5 9.2
2017-Nov-14 14:30N 60°09' E 005°15'4 8.6
2017-Nov-14 14:00N 60°13' E 005°11'4 7.8
2017-Nov-14 13:30N 60°17' E 005°11'1 2.4
2017-Nov-14 12:59N 60°18' E 005°12'0 0.0
2017-Nov-14 12:29N 60°18' E 005°12'0 0.0
2017-Nov-14 11:59N 60°18' E 005°12'0 0.0
2017-Nov-14 11:29N 60°18' E 005°12'0 0.0
2017-Nov-14 10:59N 60°18' E 005°12'0 0.0
2017-Nov-14 10:30N 60°18' E 005°12'0 0.0
2017-Nov-14 10:00N 60°18' E 005°12'0 0.0
2017-Nov-14 09:30N 60°18' E 005°12'0 0.0
2017-Nov-14 09:00N 60°18' E 005°12'0 0.0
2017-Nov-14 08:30N 60°18' E 005°12'0 0.0
2017-Nov-14 08:00N 60°18' E 005°12'0 0.0
2017-Nov-14 07:30N 60°18' E 005°12'0 0.0
2017-Nov-14 07:00N 60°18' E 005°12'0 0.0
2017-Nov-14 06:30N 60°18' E 005°12'0 0.0
2017-Nov-14 06:00N 60°18' E 005°12'1 2.8
2017-Nov-14 05:30N 60°17' E 005°11'3 6.5
2017-Nov-14 05:00N 60°14' E 005°10'3 6.9
2017-Nov-14 04:30N 60°11' E 005°14'4 7.4
2017-Nov-14 04:00N 60°08' E 005°18'4 8.4
2017-Nov-14 03:30N 60°03' E 005°19'4 8.3
2017-Nov-14 03:00N 59°59' E 005°21'5 9.7
2017-Nov-14 02:30N 59°56' E 005°28'4 9.0
2017-Nov-14 02:01N 59°52' E 005°32'4 8.6
2017-Nov-14 01:30N 59°48' E 005°33'4 7.1
2017-Nov-14 01:00N 59°45' E 005°31'4 7.4
2017-Nov-14 00:30N 59°42' E 005°26'4 7.1
2017-Nov-14 00:00N 59°39' E 005°21'4 7.5
2017-Nov-13 23:30N 59°36' E 005°17'3 6.9
2017-Nov-13 23:00N 59°33' E 005°14'4 7.7
2017-Nov-13 22:30N 59°29' E 005°13'4 7.5
2017-Nov-13 22:00N 59°25' E 005°14'3 0.2
2017-Nov-13 02:00N 59°23' E 005°17'0 0.0
2017-Nov-13 01:30N 59°23' E 005°17'0 0.0
2017-Nov-13 01:00N 59°23' E 005°17'0 0.0
2017-Nov-13 00:30N 59°23' E 005°17'0 0.0
2017-Nov-13 00:00N 59°23' E 005°17'0 0.0
2017-Nov-12 23:30N 59°23' E 005°17'0 0.0
2017-Nov-12 23:00N 59°23' E 005°17'0 0.0
2017-Nov-12 22:30N 59°23' E 005°17'0 0.0
2017-Nov-12 22:00N 59°23' E 005°17'0 0.0
2017-Nov-12 21:30N 59°23' E 005°17'0 0.0
2017-Nov-12 21:00N 59°23' E 005°17'0 0.0
2017-Nov-12 20:30N 59°23' E 005°17'0 0.0
2017-Nov-12 20:00N 59°23' E 005°17'0 0.0
2017-Nov-12 19:30N 59°23' E 005°17'0 0.0
2017-Nov-12 19:00N 59°23' E 005°17'0 0.0
2017-Nov-12 18:30N 59°23' E 005°17'0 0.0
2017-Nov-12 18:00N 59°23' E 005°17'0 0.0
2017-Nov-12 17:30N 59°23' E 005°17'0 0.0
2017-Nov-12 17:00N 59°23' E 005°17'0 0.0
2017-Nov-12 16:30N 59°23' E 005°17'0 0.0
2017-Nov-12 16:00N 59°23' E 005°17'0 0.0
2017-Nov-12 15:30N 59°23' E 005°17'0 0.0
2017-Nov-12 15:00N 59°23' E 005°17'0 0.0
2017-Nov-12 14:30N 59°23' E 005°17'0 0.0
2017-Nov-12 14:00N 59°23' E 005°17'0 0.0
2017-Nov-12 13:30N 59°23' E 005°17'0 0.0
2017-Nov-12 13:00N 59°23' E 005°17'0 0.0
2017-Nov-12 12:30N 59°23' E 005°17'0 0.0
2017-Nov-12 12:00N 59°23' E 005°17'0 0.0
2017-Nov-12 11:30N 59°23' E 005°17'0 0.0
2017-Nov-12 11:00N 59°23' E 005°17'0 0.0
2017-Nov-12 10:30N 59°23' E 005°17'0 0.0
2017-Nov-12 10:00N 59°23' E 005°17'0 0.0
2017-Nov-12 09:30N 59°23' E 005°17'0 0.0
2017-Nov-12 09:00N 59°23' E 005°17'0 0.0
2017-Nov-12 08:30N 59°23' E 005°17'0 0.0
2017-Nov-12 08:00N 59°23' E 005°17'1 2.2
2017-Nov-12 07:30N 59°22' E 005°18'2 4.8
2017-Nov-12 07:00N 59°19' E 005°20'3 5.8
2017-Nov-12 06:30N 59°17' E 005°20'2 3.9
2017-Nov-12 06:00N 59°15' E 005°22'2 4.2
2017-Nov-12 05:30N 59°15' E 005°26'3 5.4
2017-Nov-12 05:00N 59°12' E 005°29'2 4.3
2017-Nov-12 04:30N 59°12' E 005°33'2 3.7
2017-Nov-12 03:59N 59°13' E 005°36'2 3.7
2017-Nov-12 03:30N 59°14' E 005°39'2 3.7
2017-Nov-12 03:00N 59°16' E 005°42'2 3.7
2017-Nov-12 02:30N 59°17' E 005°45'2 3.7
2017-Nov-12 02:00N 59°18' E 005°48'2 3.5
2017-Nov-12 01:30N 59°19' E 005°50'2 3.7
2017-Nov-12 01:00N 59°20' E 005°54'2 3.9
2017-Nov-12 00:30N 59°20' E 005°57'2 4.5
2017-Nov-12 00:00N 59°22' E 006°01'1 2.4
2017-Nov-11 23:30N 59°22' E 006°03'0 0.0
2017-Nov-11 23:00N 59°22' E 006°03'0 0.0
2017-Nov-11 22:30N 59°22' E 006°03'2 4.9
2017-Nov-11 22:00N 59°21' E 005°59'5 9.5
2017-Nov-11 21:30N 59°19' E 005°51'5 9.3
2017-Nov-11 21:00N 59°16' E 005°43'5 8.9
2017-Nov-11 20:30N 59°15' E 005°34'4 8.5
2017-Nov-11 20:01N 59°15' E 005°26'3 6.3
2017-Nov-11 19:30N 59°17' E 005°20'5 9.8
2017-Nov-11 19:00N 59°21' E 005°19'5 9.7
2017-Nov-11 18:31N 59°26' E 005°14'5 9.4
2017-Nov-11 18:00N 59°30' E 005°12'5 9.2
2017-Nov-11 17:29N 59°35' E 005°15'510.2
2017-Nov-11 17:00N 59°39' E 005°20'510.4
2017-Nov-11 16:30N 59°43' E 005°27'510.2
2017-Nov-11 16:00N 59°47' E 005°33'5 9.5
2017-Nov-11 15:30N 59°52' E 005°32'4 8.9
2017-Nov-11 15:00N 59°56' E 005°29'4 8.8
2017-Nov-11 14:31N 59°59' E 005°23'5 9.4
2017-Nov-11 14:00N 60°03' E 005°20'4 8.2
2017-Nov-11 13:30N 60°05' E 005°27'4 8.8
2017-Nov-11 13:00N 60°01' E 005°28'1 2.8
2017-Nov-11 12:30N 59°60' E 005°29'0 0.0
2017-Nov-11 12:00N 59°60' E 005°29'0 0.0
2017-Nov-11 11:30N 59°60' E 005°29'0 0.0
2017-Nov-11 11:00N 59°60' E 005°29'0 0.0
2017-Nov-11 10:31N 59°60' E 005°29'0 0.0
2017-Nov-11 10:00N 59°60' E 005°29'0 0.0
2017-Nov-11 09:29N 59°60' E 005°29'0 0.0
2017-Nov-11 09:00N 59°60' E 005°29'0 0.0
2017-Nov-11 08:30N 59°60' E 005°29'0 0.0
2017-Nov-11 08:00N 59°60' E 005°29'0 0.0
2017-Nov-11 07:30N 59°60' E 005°29'0 0.0
2017-Nov-11 07:00N 59°60' E 005°29'0 0.0
2017-Nov-11 06:30N 59°60' E 005°29'0 0.0
2017-Nov-11 05:59N 59°60' E 005°29'0 0.0
2017-Nov-11 05:30N 59°60' E 005°29'0 0.0
2017-Nov-11 05:00N 59°60' E 005°29'0 0.0
2017-Nov-11 04:30N 59°60' E 005°29'0 0.0
2017-Nov-11 04:01N 59°60' E 005°29'0 0.0
2017-Nov-11 03:30N 59°60' E 005°29'0 0.0
2017-Nov-11 03:00N 59°60' E 005°29'0 0.0
2017-Nov-11 02:30N 59°60' E 005°29'0 0.0
2017-Nov-11 02:00N 59°60' E 005°29'0 0.0
2017-Nov-11 01:30N 59°60' E 005°29'0 0.0
2017-Nov-11 01:00N 59°60' E 005°29'0 0.0
2017-Nov-11 00:30N 59°60' E 005°29'0 0.0
2017-Nov-11 00:00N 59°60' E 005°29'0 0.0
2017-Nov-10 23:30N 59°60' E 005°29'0 0.0
2017-Nov-10 23:00N 59°60' E 005°29'0 0.0
2017-Nov-10 22:30N 59°60' E 005°29'0 0.0
2017-Nov-10 22:00N 59°60' E 005°29'0 0.6
2017-Nov-10 21:31N 59°60' E 005°29'4 7.3
2017-Nov-10 21:00N 60°04' E 005°28'3 6.6
2017-Nov-10 20:30N 60°06' E 005°25'4 7.3
2017-Nov-10 20:01N 60°09' E 005°19'4 7.2
2017-Nov-10 19:30N 60°11' E 005°14'4 7.9
2017-Nov-10 19:01N 60°14' E 005°09'4 7.9
2017-Nov-10 18:30N 60°18' E 005°12'4 7.9
2017-Nov-10 18:00N 60°22' E 005°10'4 7.8
2017-Nov-10 17:30N 60°25' E 005°16'4 8.3
2017-Nov-10 17:01N 60°29' E 005°14'4 7.4
2017-Nov-10 16:30N 60°31' E 005°08'4 7.2
2017-Nov-10 16:01N 60°33' E 005°01'1 2.4
2017-Nov-10 15:30N 60°33' E 004°59'0 0.0
2017-Nov-10 15:00N 60°33' E 004°59'0 0.0
2017-Nov-10 14:30N 60°33' E 004°59'0 0.0
2017-Nov-10 14:00N 60°33' E 004°59'0 0.0
2017-Nov-10 13:30N 60°33' E 004°59'0 0.2
2017-Nov-10 13:00N 60°33' E 004°59'0 0.0
2017-Nov-10 12:30N 60°33' E 004°59'0 0.0
2017-Nov-10 12:00N 60°33' E 004°59'0 0.0
2017-Nov-10 11:30N 60°33' E 004°59'0 0.0
2017-Nov-10 11:01N 60°33' E 004°59'0 0.0
2017-Nov-10 10:30N 60°33' E 004°59'0 0.0
2017-Nov-10 10:00N 60°33' E 004°59'0 0.0
2017-Nov-10 09:30N 60°33' E 004°59'0 0.0
2017-Nov-10 09:00N 60°33' E 004°59'0 0.0
2017-Nov-10 08:30N 60°33' E 004°59'0 0.0
2017-Nov-10 08:00N 60°33' E 004°59'0 0.0
2017-Nov-10 07:30N 60°33' E 004°59'0 0.0
2017-Nov-10 07:00N 60°33' E 004°59'0 0.0
2017-Nov-10 06:29N 60°33' E 004°59'0 0.0
2017-Nov-10 06:00N 60°33' E 004°59'3 6.2
2017-Nov-10 05:30N 60°32' E 005°05'4 8.3
2017-Nov-10 05:00N 60°30' E 005°12'4 7.4
2017-Nov-10 04:30N 60°27' E 005°15'3 6.4
2017-Nov-10 04:00N 60°24' E 005°13'3 6.7
2017-Nov-10 03:30N 60°20' E 005°11'4 7.1
2017-Nov-10 03:00N 60°17' E 005°11'3 7.2
2017-Nov-10 02:31N 60°13' E 005°10'4 7.0
2017-Nov-10 02:00N 60°10' E 005°14'4 7.5
2017-Nov-10 01:30N 60°07' E 005°18'4 7.7
2017-Nov-10 01:00N 60°03' E 005°20'4 7.5
2017-Nov-10 00:31N 59°60' E 005°21'  
Track history (hours):
 
Tides and Currents Weather Stations Pressure Air Temp Water Temp Dewpoint Dewpoint Depression Visibility Wind Speed Wind Dir Waves Ship Positions

Straumvik

Last reported at 2017-Nov-20 00:30 UTC. Time now 2017-Nov-22 11:20 UTC.
Position N 61°13' E 004°58'.

Length 50 m; draft 5 m.

Type: Ship. MMSI: 258260000.

Date/timePositionNaut miles runAvg speedWind from/ knotsBaromVisibWave heightAir tempDewpointWater temp
2017-Nov-20 00:30N 61°13' E 004°58'4 7.9
2017-Nov-20 00:01N 61°09' E 005°01'4 7.8
2017-Nov-19 23:30N 61°05' E 005°00'4 7.6
2017-Nov-19 23:00N 61°02' E 004°55'4 7.7
2017-Nov-19 22:30N 61°00' E 004°49'4 7.2
2017-Nov-19 22:00N 60°57' E 004°45'4 7.5
2017-Nov-19 21:30N 60°53' E 004°46'4 7.0
2017-Nov-19 21:00N 60°50' E 004°45'4 7.1
2017-Nov-19 20:30N 60°46' E 004°47'4 7.5
2017-Nov-19 20:00N 60°43' E 004°50'4 7.4
2017-Nov-19 19:30N 60°40' E 004°54'4 7.7
2017-Nov-19 19:00N 60°37' E 005°00'4 7.9
2017-Nov-19 18:30N 60°36' E 005°08'4 8.1
2017-Nov-19 18:00N 60°34' E 005°14'3 6.6
2017-Nov-19 17:30N 60°33' E 005°21'4 7.0
2017-Nov-19 17:00N 60°36' E 005°26'0 0.5
2017-Nov-19 16:29N 60°36' E 005°26'0 0.0
2017-Nov-19 15:59N 60°36' E 005°26'0 0.0
2017-Nov-19 15:29N 60°36' E 005°26'0 0.0
2017-Nov-19 14:59N 60°36' E 005°26'0 0.0
2017-Nov-19 14:29N 60°36' E 005°26'0 0.0
2017-Nov-19 13:59N 60°36' E 005°26'0 0.0
2017-Nov-19 13:29N 60°36' E 005°26'0 0.0
2017-Nov-19 12:59N 60°36' E 005°26'0 0.0
2017-Nov-19 12:29N 60°36' E 005°26'0 0.0
2017-Nov-19 11:56N 60°36' E 005°26'0 0.0
2017-Nov-19 11:29N 60°36' E 005°26'0 0.0
2017-Nov-19 10:59N 60°36' E 005°26'0 0.0
2017-Nov-19 10:29N 60°36' E 005°26'0 0.0
2017-Nov-19 09:59N 60°36' E 005°26'0 0.0
2017-Nov-19 09:29N 60°36' E 005°26'0 0.0
2017-Nov-19 08:59N 60°36' E 005°26'0 0.0
2017-Nov-19 08:29N 60°36' E 005°26'0 0.0
2017-Nov-19 07:59N 60°36' E 005°26'0 0.0
2017-Nov-19 07:29N 60°36' E 005°26'0 0.0
2017-Nov-19 06:59N 60°36' E 005°26'0 0.0
2017-Nov-19 06:29N 60°36' E 005°26'0 0.0
2017-Nov-19 05:59N 60°36' E 005°26'0 0.0
2017-Nov-19 05:29N 60°36' E 005°26'0 0.0
2017-Nov-19 04:59N 60°36' E 005°26'0 0.0
2017-Nov-19 04:29N 60°36' E 005°26'0 0.0
2017-Nov-19 03:59N 60°36' E 005°26'0 0.0
2017-Nov-19 03:29N 60°36' E 005°26'0 0.0
2017-Nov-19 02:59N 60°36' E 005°26'0 0.0
2017-Nov-19 02:29N 60°36' E 005°26'0 0.0
2017-Nov-19 01:59N 60°36' E 005°26'0 0.0
2017-Nov-19 01:29N 60°36' E 005°26'0 0.0
2017-Nov-19 00:59N 60°36' E 005°26'0 0.0
2017-Nov-19 00:29N 60°36' E 005°26'0 0.0
2017-Nov-18 23:59N 60°36' E 005°26'0 0.0
2017-Nov-18 23:29N 60°36' E 005°26'0 0.0
2017-Nov-18 22:59N 60°36' E 005°26'0 0.0
2017-Nov-18 22:29N 60°36' E 005°26'0 0.0
2017-Nov-18 21:59N 60°36' E 005°26'0 0.0
2017-Nov-18 21:29N 60°36' E 005°26'0 0.0
2017-Nov-18 20:59N 60°36' E 005°26'0 0.0
2017-Nov-18 20:29N 60°36' E 005°26'0 0.0
2017-Nov-18 19:59N 60°36' E 005°26'0 0.0
2017-Nov-18 19:29N 60°36' E 005°26'0 0.0
2017-Nov-18 18:59N 60°36' E 005°26'0 0.0
2017-Nov-18 18:30N 60°36' E 005°26'4 7.3
2017-Nov-18 18:00N 60°33' E 005°21'4 8.7
2017-Nov-18 17:30N 60°30' E 005°15'4 7.5
2017-Nov-18 17:00N 60°26' E 005°15'4 7.8
2017-Nov-18 16:30N 60°23' E 005°11'4 8.1
2017-Nov-18 16:00N 60°19' E 005°12'4 8.7
2017-Nov-18 15:30N 60°15' E 005°10'4 8.1
2017-Nov-18 15:00N 60°11' E 005°14'4 8.0
2017-Nov-18 14:30N 60°08' E 005°19'4 7.8
2017-Nov-18 14:00N 60°07' E 005°26'4 7.3
2017-Nov-18 13:30N 60°06' E 005°33'3 6.1
2017-Nov-18 13:00N 60°04' E 005°38'0 0.0
2017-Nov-18 12:24N 60°04' E 005°38'0 0.0
2017-Nov-18 11:54N 60°04' E 005°38'0 0.0
2017-Nov-18 11:30N 60°04' E 005°38'0 0.0
2017-Nov-18 10:58N 60°04' E 005°38'0 0.0
2017-Nov-18 10:30N 60°04' E 005°38'0 0.0
2017-Nov-18 09:55N 60°04' E 005°38'0 0.0
2017-Nov-18 09:30N 60°04' E 005°38'0 0.0
2017-Nov-18 09:00N 60°04' E 005°38'0 0.0
2017-Nov-18 08:30N 60°04' E 005°38'0 0.0
2017-Nov-18 08:00N 60°04' E 005°38'0 0.0
2017-Nov-18 07:30N 60°04' E 005°38'2 3.3
2017-Nov-18 07:00N 60°05' E 005°36'3 5.1
2017-Nov-18 06:30N 60°06' E 005°31'3 5.8
2017-Nov-18 05:59N 60°07' E 005°26'3 5.9
2017-Nov-18 05:30N 60°08' E 005°20'3 5.9
2017-Nov-18 04:59N 60°10' E 005°16'3 5.3
2017-Nov-18 04:29N 60°12' E 005°13'3 5.3
2017-Nov-18 04:00N 60°14' E 005°09'2 5.0
2017-Nov-18 03:30N 60°17' E 005°10'3 5.2
2017-Nov-18 03:00N 60°19' E 005°12'2 5.1
2017-Nov-18 02:30N 60°21' E 005°10'3 5.2
2017-Nov-18 02:00N 60°24' E 005°13'2 4.6
2017-Nov-18 01:30N 60°26' E 005°15'2 4.8
2017-Nov-18 01:00N 60°28' E 005°15'2 4.4
2017-Nov-18 00:30N 60°30' E 005°12'2 4.8
2017-Nov-18 00:00N 60°31' E 005°08'3 5.4
2017-Nov-17 23:30N 60°32' E 005°03'2 4.2
2017-Nov-17 23:00N 60°33' E 004°59'0 0.1
2017-Nov-17 22:30N 60°33' E 004°59'0 0.0
2017-Nov-17 22:00N 60°33' E 004°59'1 1.6
2017-Nov-17 21:29N 60°33' E 005°01'4 7.9
2017-Nov-17 21:00N 60°31' E 005°08'4 8.2
2017-Nov-17 20:30N 60°29' E 005°14'4 9.1
2017-Nov-17 20:00N 60°24' E 005°17'1 1.5
2017-Nov-17 19:30N 60°24' E 005°17'0 0.0
2017-Nov-17 19:00N 60°24' E 005°17'0 0.0
2017-Nov-17 18:30N 60°24' E 005°17'0 0.0
2017-Nov-17 18:00N 60°24' E 005°17'0 0.0
2017-Nov-17 17:30N 60°24' E 005°17'0 0.0
2017-Nov-17 17:00N 60°24' E 005°17'0 0.0
2017-Nov-17 16:30N 60°24' E 005°17'0 0.0
2017-Nov-17 16:00N 60°24' E 005°17'0 0.0
2017-Nov-17 15:30N 60°24' E 005°17'0 0.0
2017-Nov-17 15:00N 60°24' E 005°17'0 0.0
2017-Nov-17 14:30N 60°24' E 005°17'3 6.6
2017-Nov-17 14:00N 60°27' E 005°15'4 7.9
2017-Nov-17 13:30N 60°30' E 005°11'4 8.6
2017-Nov-17 13:00N 60°32' E 005°04'2 4.8
2017-Nov-17 12:30N 60°33' E 004°59'0 0.0
2017-Nov-17 12:00N 60°33' E 004°59'0 0.0
2017-Nov-17 11:30N 60°33' E 004°59'0 0.4
2017-Nov-17 11:00N 60°33' E 004°60'4 7.2
2017-Nov-17 10:30N 60°32' E 005°06'4 8.2
2017-Nov-17 10:00N 60°30' E 005°13'4 8.6
2017-Nov-17 09:30N 60°25' E 005°16'4 8.2
2017-Nov-17 09:00N 60°22' E 005°10'0 0.3
2017-Nov-17 08:30N 60°22' E 005°10'0 0.0
2017-Nov-17 08:00N 60°22' E 005°10'0 0.0
2017-Nov-17 07:30N 60°22' E 005°10'0 0.0
2017-Nov-17 07:00N 60°22' E 005°10'0 0.0
2017-Nov-17 06:30N 60°22' E 005°10'0 0.0
2017-Nov-17 06:00N 60°22' E 005°10'0 0.0
2017-Nov-17 05:30N 60°22' E 005°10'0 0.0
2017-Nov-17 05:00N 60°22' E 005°10'0 0.0
2017-Nov-17 04:30N 60°22' E 005°10'0 0.0
2017-Nov-17 04:00N 60°22' E 005°10'0 0.0
2017-Nov-17 03:30N 60°22' E 005°10'0 0.0
2017-Nov-17 03:00N 60°22' E 005°10'0 0.0
2017-Nov-17 02:30N 60°22' E 005°10'0 0.0
2017-Nov-17 02:00N 60°22' E 005°10'0 0.0
2017-Nov-17 01:30N 60°22' E 005°10'1 2.2
2017-Nov-17 01:00N 60°23' E 005°11'4 7.5
2017-Nov-17 00:30N 60°26' E 005°15'4 8.5
2017-Nov-17 00:00N 60°30' E 005°11'5 9.1
2017-Nov-16 23:30N 60°32' E 005°03'2 4.2
2017-Nov-16 22:59N 60°33' E 004°59'0 0.0
2017-Nov-16 22:29N 60°33' E 004°59'0 0.0
2017-Nov-16 22:00N 60°33' E 004°59'0 0.2
2017-Nov-16 21:30N 60°33' E 004°59'4 7.0
2017-Nov-16 21:00N 60°32' E 005°06'4 7.6
2017-Nov-16 20:30N 60°30' E 005°13'4 8.2
2017-Nov-16 20:00N 60°26' E 005°15'4 8.6
2017-Nov-16 19:30N 60°23' E 005°10'0 0.9
2017-Nov-16 18:58N 60°22' E 005°10'0 0.0
2017-Nov-16 18:28N 60°22' E 005°10'0 0.0
2017-Nov-16 17:58N 60°22' E 005°10'0 0.0
2017-Nov-16 17:28N 60°22' E 005°10'0 0.0
2017-Nov-16 16:58N 60°22' E 005°10'0 0.0
2017-Nov-16 16:28N 60°22' E 005°10'0 0.0
2017-Nov-16 15:58N 60°22' E 005°10'1 2.0
2017-Nov-16 15:30N 60°23' E 005°11'4 7.1
2017-Nov-16 15:00N 60°26' E 005°15'4 7.8
2017-Nov-16 14:30N 60°29' E 005°13'4 8.1
2017-Nov-16 14:00N 60°32' E 005°06'4 7.5
2017-Nov-16 13:30N 60°33' E 004°59'0 0.0
2017-Nov-16 13:00N 60°33' E 004°59'0 0.0
2017-Nov-16 12:30N 60°33' E 004°59'0 0.0
2017-Nov-16 12:00N 60°33' E 004°59'1 2.0
2017-Nov-16 11:30N 60°33' E 005°01'510.6
2017-Nov-16 11:00N 60°31' E 005°11'510.5
2017-Nov-16 10:30N 60°26' E 005°16'3 4.8
2017-Nov-16 09:58N 60°24' E 005°17'0 0.0
2017-Nov-16 09:28N 60°24' E 005°17'0 0.0
2017-Nov-16 08:58N 60°24' E 005°17'0 0.0
2017-Nov-16 08:28N 60°24' E 005°17'0 0.0
2017-Nov-16 07:58N 60°24' E 005°17'0 0.0
2017-Nov-16 07:28N 60°24' E 005°17'0 0.0
2017-Nov-16 06:58N 60°24' E 005°17'0 0.0
2017-Nov-16 06:28N 60°24' E 005°17'0 0.0
2017-Nov-16 06:00N 60°24' E 005°17'2 3.7
2017-Nov-16 05:29N 60°25' E 005°16'3 6.6
2017-Nov-16 05:00N 60°28' E 005°14'3 6.6
2017-Nov-16 04:30N 60°31' E 005°10'4 7.4
2017-Nov-16 04:00N 60°32' E 005°03'2 3.8
2017-Nov-16 03:29N 60°33' E 004°59'0 0.0
2017-Nov-16 02:59N 60°33' E 004°59'0 0.0
2017-Nov-16 02:29N 60°33' E 004°59'0 0.0
2017-Nov-16 01:59N 60°33' E 004°59'0 0.0
2017-Nov-16 01:30N 60°33' E 004°59'3 6.7
2017-Nov-16 01:00N 60°32' E 005°05'510.0
2017-Nov-16 00:30N 60°29' E 005°14'5 9.5
2017-Nov-16 00:01N 60°24' E 005°15'4 7.7
2017-Nov-15 23:30N 60°21' E 005°10'4 8.2
2017-Nov-15 23:00N 60°17' E 005°12'4 8.5
2017-Nov-15 22:30N 60°13' E 005°11'5 9.7
2017-Nov-15 22:00N 60°09' E 005°16'5 9.5
2017-Nov-15 21:30N 60°05' E 005°19'5 9.7
2017-Nov-15 21:00N 59°60' E 005°21'510.1
2017-Nov-15 20:30N 59°56' E 005°28'4 8.7
2017-Nov-15 20:00N 59°53' E 005°34'4 8.7
2017-Nov-15 19:30N 59°52' E 005°42'1 1.9
2017-Nov-15 18:58N 59°52' E 005°44'0 0.0
2017-Nov-15 18:28N 59°52' E 005°44'0 0.0
2017-Nov-15 17:58N 59°52' E 005°44'0 0.0
2017-Nov-15 17:25N 59°52' E 005°44'0 0.0
2017-Nov-15 16:58N 59°52' E 005°44'0 0.0
2017-Nov-15 16:28N 59°52' E 005°44'0 0.0
2017-Nov-15 15:58N 59°52' E 005°44'0 0.0
2017-Nov-15 15:19N 59°52' E 005°44'0 0.0
2017-Nov-15 14:58N 59°52' E 005°44'0 0.0
2017-Nov-15 14:28N 59°52' E 005°44'0 0.0
2017-Nov-15 13:55N 59°52' E 005°44'0 0.0
2017-Nov-15 13:22N 59°52' E 005°44'0 0.0
2017-Nov-15 12:58N 59°52' E 005°44'0 0.0
2017-Nov-15 12:25N 59°52' E 005°44'0 0.0
2017-Nov-15 11:58N 59°52' E 005°44'0 0.0
2017-Nov-15 11:22N 59°52' E 005°44'0 0.0
2017-Nov-15 10:58N 59°52' E 005°44'0 0.0
2017-Nov-15 10:28N 59°52' E 005°44'0 0.0
2017-Nov-15 09:58N 59°52' E 005°44'0 0.0
2017-Nov-15 09:28N 59°52' E 005°44'0 0.0
2017-Nov-15 08:55N 59°52' E 005°44'0 0.0
2017-Nov-15 08:28N 59°52' E 005°44'0 0.0
2017-Nov-15 07:58N 59°52' E 005°44'0 0.0
2017-Nov-15 07:28N 59°52' E 005°44'0 0.0
2017-Nov-15 06:58N 59°52' E 005°44'0 0.0
2017-Nov-15 06:28N 59°52' E 005°44'0 0.0
2017-Nov-15 05:58N 59°52' E 005°44'0 0.0
2017-Nov-15 05:28N 59°52' E 005°44'0 0.0
2017-Nov-15 04:58N 59°52' E 005°44'0 0.0
2017-Nov-15 04:28N 59°52' E 005°44'0 0.0
2017-Nov-15 03:55N 59°52' E 005°44'0 0.0
2017-Nov-15 03:28N 59°52' E 005°44'0 0.0
2017-Nov-15 02:58N 59°52' E 005°44'0 0.0
2017-Nov-15 02:25N 59°52' E 005°44'0 0.0
2017-Nov-15 01:58N 59°52' E 005°44'0 0.0
2017-Nov-15 01:30N 59°52' E 005°44'2 3.8
2017-Nov-15 01:00N 59°51' E 005°41'4 7.6
2017-Nov-15 00:30N 59°48' E 005°37'4 8.7
2017-Nov-15 00:00N 59°44' E 005°37'4 8.6
2017-Nov-14 23:30N 59°40' E 005°42'4 8.1
2017-Nov-14 23:00N 59°39' E 005°50'3 6.2
2017-Nov-14 22:30N 59°40' E 005°56'0 0.0
2017-Nov-14 22:00N 59°40' E 005°56'0 0.0
2017-Nov-14 21:30N 59°40' E 005°56'0 0.0
2017-Nov-14 21:00N 59°40' E 005°56'0 0.0
2017-Nov-14 20:30N 59°40' E 005°56'0 0.0
2017-Nov-14 20:00N 59°40' E 005°56'0 0.0
2017-Nov-14 19:30N 59°40' E 005°56'0 0.2
2017-Nov-14 19:00N 59°40' E 005°56'4 8.2
2017-Nov-14 18:30N 59°39' E 005°48'4 9.0
2017-Nov-14 18:00N 59°41' E 005°41'5 9.4
2017-Nov-14 17:30N 59°45' E 005°36'5 9.6
2017-Nov-14 17:01N 59°50' E 005°33'4 8.9
2017-Nov-14 16:30N 59°54' E 005°31'4 8.2
2017-Nov-14 16:00N 59°57' E 005°25'4 8.3
2017-Nov-14 15:30N 60°00' E 005°20'5 9.2
2017-Nov-14 15:00N 60°05' E 005°19'5 9.2
2017-Nov-14 14:30N 60°09' E 005°15'4 8.6
2017-Nov-14 14:00N 60°13' E 005°11'4 7.8
2017-Nov-14 13:30N 60°17' E 005°11'1 2.4
2017-Nov-14 12:59N 60°18' E 005°12'0 0.0
2017-Nov-14 12:29N 60°18' E 005°12'0 0.0
2017-Nov-14 11:59N 60°18' E 005°12'0 0.0
2017-Nov-14 11:29N 60°18' E 005°12'0 0.0
2017-Nov-14 10:59N 60°18' E 005°12'0 0.0
2017-Nov-14 10:30N 60°18' E 005°12'0 0.0
2017-Nov-14 10:00N 60°18' E 005°12'0 0.0
2017-Nov-14 09:30N 60°18' E 005°12'0 0.0
2017-Nov-14 09:00N 60°18' E 005°12'0 0.0
2017-Nov-14 08:30N 60°18' E 005°12'0 0.0
2017-Nov-14 08:00N 60°18' E 005°12'0 0.0
2017-Nov-14 07:30N 60°18' E 005°12'0 0.0
2017-Nov-14 07:00N 60°18' E 005°12'0 0.0
2017-Nov-14 06:30N 60°18' E 005°12'0 0.0
2017-Nov-14 06:00N 60°18' E 005°12'1 2.8
2017-Nov-14 05:30N 60°17' E 005°11'3 6.5
2017-Nov-14 05:00N 60°14' E 005°10'3 6.9
2017-Nov-14 04:30N 60°11' E 005°14'4 7.4
2017-Nov-14 04:00N 60°08' E 005°18'4 8.4
2017-Nov-14 03:30N 60°03' E 005°19'4 8.3
2017-Nov-14 03:00N 59°59' E 005°21'5 9.7
2017-Nov-14 02:30N 59°56' E 005°28'4 9.0
2017-Nov-14 02:01N 59°52' E 005°32'4 8.6
2017-Nov-14 01:30N 59°48' E 005°33'4 7.1
2017-Nov-14 01:00N 59°45' E 005°31'4 7.4
2017-Nov-14 00:30N 59°42' E 005°26'4 7.1
2017-Nov-14 00:00N 59°39' E 005°21'4 7.5
2017-Nov-13 23:30N 59°36' E 005°17'3 6.9
2017-Nov-13 23:00N 59°33' E 005°14'4 7.7
2017-Nov-13 22:30N 59°29' E 005°13'4 7.5
2017-Nov-13 22:00N 59°25' E 005°14'3 0.2
2017-Nov-13 02:00N 59°23' E 005°17'0 0.0
2017-Nov-13 01:30N 59°23' E 005°17'0 0.0
2017-Nov-13 01:00N 59°23' E 005°17'0 0.0
2017-Nov-13 00:30N 59°23' E 005°17'0 0.0
2017-Nov-13 00:00N 59°23' E 005°17'0 0.0
2017-Nov-12 23:30N 59°23' E 005°17'0 0.0
2017-Nov-12 23:00N 59°23' E 005°17'0 0.0
2017-Nov-12 22:30N 59°23' E 005°17'0 0.0
2017-Nov-12 22:00N 59°23' E 005°17'0 0.0
2017-Nov-12 21:30N 59°23' E 005°17'0 0.0
2017-Nov-12 21:00N 59°23' E 005°17'0 0.0
2017-Nov-12 20:30N 59°23' E 005°17'0 0.0
2017-Nov-12 20:00N 59°23' E 005°17'0 0.0
2017-Nov-12 19:30N 59°23' E 005°17'0 0.0
2017-Nov-12 19:00N 59°23' E 005°17'0 0.0
2017-Nov-12 18:30N 59°23' E 005°17'0 0.0
2017-Nov-12 18:00N 59°23' E 005°17'0 0.0
2017-Nov-12 17:30N 59°23' E 005°17'0 0.0
2017-Nov-12 17:00N 59°23' E 005°17'0 0.0
2017-Nov-12 16:30N 59°23' E 005°17'0 0.0
2017-Nov-12 16:00N 59°23' E 005°17'0 0.0
2017-Nov-12 15:30N 59°23' E 005°17'0 0.0
2017-Nov-12 15:00N 59°23' E 005°17'0 0.0
2017-Nov-12 14:30N 59°23' E 005°17'0 0.0
2017-Nov-12 14:00N 59°23' E 005°17'0 0.0
2017-Nov-12 13:30N 59°23' E 005°17'0 0.0
2017-Nov-12 13:00N 59°23' E 005°17'0 0.0
2017-Nov-12 12:30N 59°23' E 005°17'0 0.0
2017-Nov-12 12:00N 59°23' E 005°17'0 0.0
2017-Nov-12 11:30N 59°23' E 005°17'0 0.0
2017-Nov-12 11:00N 59°23' E 005°17'0 0.0
2017-Nov-12 10:30N 59°23' E 005°17'0 0.0
2017-Nov-12 10:00N 59°23' E 005°17'0 0.0
2017-Nov-12 09:30N 59°23' E 005°17'0 0.0
2017-Nov-12 09:00N 59°23' E 005°17'0 0.0
2017-Nov-12 08:30N 59°23' E 005°17'0 0.0
2017-Nov-12 08:00N 59°23' E 005°17'1 2.2
2017-Nov-12 07:30N 59°22' E 005°18'2 4.8
2017-Nov-12 07:00N 59°19' E 005°20'3 5.8
2017-Nov-12 06:30N 59°17' E 005°20'2 3.9
2017-Nov-12 06:00N 59°15' E 005°22'2 4.2
2017-Nov-12 05:30N 59°15' E 005°26'3 5.4
2017-Nov-12 05:00N 59°12' E 005°29'2 4.3
2017-Nov-12 04:30N 59°12' E 005°33'2 3.7
2017-Nov-12 03:59N 59°13' E 005°36'2 3.7
2017-Nov-12 03:30N 59°14' E 005°39'2 3.7
2017-Nov-12 03:00N 59°16' E 005°42'2 3.7
2017-Nov-12 02:30N 59°17' E 005°45'2 3.7
2017-Nov-12 02:00N 59°18' E 005°48'2 3.5
2017-Nov-12 01:30N 59°19' E 005°50'2 3.7
2017-Nov-12 01:00N 59°20' E 005°54'2 3.9
2017-Nov-12 00:30N 59°20' E 005°57'2 4.5
2017-Nov-12 00:00N 59°22' E 006°01'1 2.4
2017-Nov-11 23:30N 59°22' E 006°03'0 0.0
2017-Nov-11 23:00N 59°22' E 006°03'0 0.0
2017-Nov-11 22:30N 59°22' E 006°03'2 4.9
2017-Nov-11 22:00N 59°21' E 005°59'5 9.5
2017-Nov-11 21:30N 59°19' E 005°51'5 9.3
2017-Nov-11 21:00N 59°16' E 005°43'5 8.9
2017-Nov-11 20:30N 59°15' E 005°34'4 8.5
2017-Nov-11 20:01N 59°15' E 005°26'3 6.3
2017-Nov-11 19:30N 59°17' E 005°20'5 9.8
2017-Nov-11 19:00N 59°21' E 005°19'5 9.7
2017-Nov-11 18:31N 59°26' E 005°14'5 9.4
2017-Nov-11 18:00N 59°30' E 005°12'5 9.2
2017-Nov-11 17:29N 59°35' E 005°15'510.2
2017-Nov-11 17:00N 59°39' E 005°20'510.4
2017-Nov-11 16:30N 59°43' E 005°27'510.2
2017-Nov-11 16:00N 59°47' E 005°33'5 9.5
2017-Nov-11 15:30N 59°52' E 005°32'4 8.9
2017-Nov-11 15:00N 59°56' E 005°29'4 8.8
2017-Nov-11 14:31N 59°59' E 005°23'5 9.4
2017-Nov-11 14:00N 60°03' E 005°20'4 8.2
2017-Nov-11 13:30N 60°05' E 005°27'4 8.8
2017-Nov-11 13:00N 60°01' E 005°28'1 2.8
2017-Nov-11 12:30N 59°60' E 005°29'0 0.0
2017-Nov-11 12:00N 59°60' E 005°29'0 0.0
2017-Nov-11 11:30N 59°60' E 005°29'0 0.0
2017-Nov-11 11:00N 59°60' E 005°29'0 0.0
2017-Nov-11 10:31N 59°60' E 005°29'0 0.0
2017-Nov-11 10:00N 59°60' E 005°29'0 0.0
2017-Nov-11 09:29N 59°60' E 005°29'0 0.0
2017-Nov-11 09:00N 59°60' E 005°29'0 0.0
2017-Nov-11 08:30N 59°60' E 005°29'0 0.0
2017-Nov-11 08:00N 59°60' E 005°29'0 0.0
2017-Nov-11 07:30N 59°60' E 005°29'0 0.0
2017-Nov-11 07:00N 59°60' E 005°29'0 0.0
2017-Nov-11 06:30N 59°60' E 005°29'0 0.0
2017-Nov-11 05:59N 59°60' E 005°29'0 0.0
2017-Nov-11 05:30N 59°60' E 005°29'0 0.0
2017-Nov-11 05:00N 59°60' E 005°29'0 0.0
2017-Nov-11 04:30N 59°60' E 005°29'0 0.0
2017-Nov-11 04:01N 59°60' E 005°29'0 0.0
2017-Nov-11 03:30N 59°60' E 005°29'0 0.0
2017-Nov-11 03:00N 59°60' E 005°29'0 0.0
2017-Nov-11 02:30N 59°60' E 005°29'0 0.0
2017-Nov-11 02:00N 59°60' E 005°29'0 0.0
2017-Nov-11 01:30N 59°60' E 005°29'0 0.0
2017-Nov-11 01:00N 59°60' E 005°29'0 0.0
2017-Nov-11 00:30N 59°60' E 005°29'0 0.0
2017-Nov-11 00:00N 59°60' E 005°29'0 0.0
2017-Nov-10 23:30N 59°60' E 005°29'0 0.0
2017-Nov-10 23:00N 59°60' E 005°29'0 0.0
2017-Nov-10 22:30N 59°60' E 005°29'0 0.0
2017-Nov-10 22:00N 59°60' E 005°29'0 0.6
2017-Nov-10 21:31N 59°60' E 005°29'4 7.3
2017-Nov-10 21:00N 60°04' E 005°28'3 6.6
2017-Nov-10 20:30N 60°06' E 005°25'4 7.3
2017-Nov-10 20:01N 60°09' E 005°19'4 7.2
2017-Nov-10 19:30N 60°11' E 005°14'4 7.9
2017-Nov-10 19:01N 60°14' E 005°09'4 7.9
2017-Nov-10 18:30N 60°18' E 005°12'4 7.9
2017-Nov-10 18:00N 60°22' E 005°10'4 7.8
2017-Nov-10 17:30N 60°25' E 005°16'4 8.3
2017-Nov-10 17:01N 60°29' E 005°14'4 7.4
2017-Nov-10 16:30N 60°31' E 005°08'4 7.2
2017-Nov-10 16:01N 60°33' E 005°01'1 2.4
2017-Nov-10 15:30N 60°33' E 004°59'0 0.0
2017-Nov-10 15:00N 60°33' E 004°59'0 0.0
2017-Nov-10 14:30N 60°33' E 004°59'0 0.0
2017-Nov-10 14:00N 60°33' E 004°59'0 0.0
2017-Nov-10 13:30N 60°33' E 004°59'0 0.2
2017-Nov-10 13:00N 60°33' E 004°59'0 0.0
2017-Nov-10 12:30N 60°33' E 004°59'0 0.0
2017-Nov-10 12:00N 60°33' E 004°59'0 0.0
2017-Nov-10 11:30N 60°33' E 004°59'0 0.0
2017-Nov-10 11:01N 60°33' E 004°59'0 0.0
2017-Nov-10 10:30N 60°33' E 004°59'0 0.0
2017-Nov-10 10:00N 60°33' E 004°59'0 0.0
2017-Nov-10 09:30N 60°33' E 004°59'0 0.0
2017-Nov-10 09:00N 60°33' E 004°59'0 0.0
2017-Nov-10 08:30N 60°33' E 004°59'0 0.0
2017-Nov-10 08:00N 60°33' E 004°59'0 0.0
2017-Nov-10 07:30N 60°33' E 004°59'0 0.0
2017-Nov-10 07:00N 60°33' E 004°59'0 0.0
2017-Nov-10 06:29N 60°33' E 004°59'0 0.0
2017-Nov-10 06:00N 60°33' E 004°59'3 6.2
2017-Nov-10 05:30N 60°32' E 005°05'4 8.3
2017-Nov-10 05:00N 60°30' E 005°12'4 7.4
2017-Nov-10 04:30N 60°27' E 005°15'3 6.4
2017-Nov-10 04:00N 60°24' E 005°13'3 6.7
2017-Nov-10 03:30N 60°20' E 005°11'4 7.1
2017-Nov-10 03:00N 60°17' E 005°11'3 7.2
2017-Nov-10 02:31N 60°13' E 005°10'4 7.0
2017-Nov-10 02:00N 60°10' E 005°14'4 7.5
2017-Nov-10 01:30N 60°07' E 005°18'4 7.7
2017-Nov-10 01:00N 60°03' E 005°20'4 7.5
2017-Nov-10 00:31N 59°60' E 005°21'  

Dump ship's entire track history